sensor_id;sensor_type;location;lat;lon;timestamp;pressure;altitude;pressure_sealevel;temperature;humidity
5146;BME280;2591;48.144;15.152;2022-08-01T00:00:59;74610.63;;;-144.65;89.67
5146;BME280;2591;48.144;15.152;2022-08-01T00:03:27;74614.69;;;-144.65;90.08
5146;BME280;2591;48.144;15.152;2022-08-01T00:05:55;74610.63;;;-144.65;90.31
5146;BME280;2591;48.144;15.152;2022-08-01T00:08:23;74610.63;;;-144.65;90.45
5146;BME280;2591;48.144;15.152;2022-08-01T00:10:51;74610.63;;;-144.65;90.73
5146;BME280;2591;48.144;15.152;2022-08-01T00:13:19;74610.63;;;-144.65;90.74
5146;BME280;2591;48.144;15.152;2022-08-01T00:15:47;74608.56;;;-144.65;91.31
5146;BME280;2591;48.144;15.152;2022-08-01T00:18:21;74612.66;;;-144.65;91.31
5146;BME280;2591;48.144;15.152;2022-08-01T00:20:49;74612.66;;;-144.65;91.53
5146;BME280;2591;48.144;15.152;2022-08-01T00:23:17;74614.69;;;-144.65;91.87
5146;BME280;2591;48.144;15.152;2022-08-01T00:25:45;74618.75;;;-144.65;91.91
5146;BME280;2591;48.144;15.152;2022-08-01T00:28:13;74618.75;;;-144.65;91.97
5146;BME280;2591;48.144;15.152;2022-08-01T00:30:42;74622.84;;;-144.65;92.00
5146;BME280;2591;48.144;15.152;2022-08-01T00:33:10;74620.81;;;-144.65;92.39
5146;BME280;2591;48.144;15.152;2022-08-01T00:35:40;74620.81;;;-144.65;92.81
5146;BME280;2591;48.144;15.152;2022-08-01T00:38:07;74622.84;;;-144.65;93.11
5146;BME280;2591;48.144;15.152;2022-08-01T00:40:35;74631.00;;;-144.65;92.99
5146;BME280;2591;48.144;15.152;2022-08-01T00:43:03;74631.00;;;-144.65;93.15
5146;BME280;2591;48.144;15.152;2022-08-01T00:45:31;74635.06;;;-144.65;93.21
5146;BME280;2591;48.144;15.152;2022-08-01T00:47:59;74639.13;;;-144.65;92.95
5146;BME280;2591;48.144;15.152;2022-08-01T00:50:27;74643.22;;;-144.65;93.24
5146;BME280;2591;48.144;15.152;2022-08-01T00:52:57;74643.22;;;-144.65;93.88
5146;BME280;2591;48.144;15.152;2022-08-01T00:55:26;74647.28;;;-144.65;94.30
5146;BME280;2591;48.144;15.152;2022-08-01T00:57:55;74643.22;;;-144.65;95.18
5146;BME280;2591;48.144;15.152;2022-08-01T01:00:33;74635.06;;;-144.65;94.76
5146;BME280;2591;48.144;15.152;2022-08-01T01:03:19;74635.06;;;-144.65;94.73
5146;BME280;2591;48.144;15.152;2022-08-01T01:06:13;74639.13;;;-144.65;94.48
5146;BME280;2591;48.144;15.152;2022-08-01T01:08:50;74635.06;;;-144.65;94.18
5146;BME280;2591;48.144;15.152;2022-08-01T01:11:25;74633.03;;;-144.65;93.93
5146;BME280;2591;48.144;15.152;2022-08-01T01:13:57;74628.94;;;-144.65;93.62
5146;BME280;2591;48.144;15.152;2022-08-01T01:16:30;74635.06;;;-144.65;93.23
5146;BME280;2591;48.144;15.152;2022-08-01T01:19:01;74635.06;;;-144.65;93.17
5146;BME280;2591;48.144;15.152;2022-08-01T01:21:53;74639.13;;;-144.65;92.59
5146;BME280;2591;48.144;15.152;2022-08-01T01:24:34;74635.06;;;-144.65;91.67
5146;BME280;2591;48.144;15.152;2022-08-01T01:27:10;74628.94;;;-144.65;91.41
5146;BME280;2591;48.144;15.152;2022-08-01T01:29:46;74626.91;;;-144.65;90.56
5146;BME280;2591;48.144;15.152;2022-08-01T01:32:30;74618.75;;;-144.65;91.54
5146;BME280;2591;48.144;15.152;2022-08-01T01:35:02;74618.75;;;-144.65;91.93
5146;BME280;2591;48.144;15.152;2022-08-01T01:37:33;74614.69;;;-144.65;91.92
5146;BME280;2591;48.144;15.152;2022-08-01T01:40:04;74614.69;;;-144.65;91.83
5146;BME280;2591;48.144;15.152;2022-08-01T01:42:33;74614.69;;;-144.65;92.12
5146;BME280;2591;48.144;15.152;2022-08-01T01:45:05;74614.69;;;-144.65;91.79
5146;BME280;2591;48.144;15.152;2022-08-01T01:47:35;74618.75;;;-144.65;91.13
5146;BME280;2591;48.144;15.152;2022-08-01T01:50:05;74612.66;;;-144.65;90.76
5146;BME280;2591;48.144;15.152;2022-08-01T01:52:36;74602.47;;;-144.65;90.56
5146;BME280;2591;48.144;15.152;2022-08-01T01:55:08;74606.53;;;-144.65;91.07
5146;BME280;2591;48.144;15.152;2022-08-01T01:57:38;74610.63;;;-144.65;91.10
5146;BME280;2591;48.144;15.152;2022-08-01T02:00:10;74602.47;;;-144.65;91.28
5146;BME280;2591;48.144;15.152;2022-08-01T02:02:40;74606.53;;;-144.65;91.86
5146;BME280;2591;48.144;15.152;2022-08-01T02:05:11;74614.69;;;-144.65;92.59
5146;BME280;2591;48.144;15.152;2022-08-01T02:07:39;74612.66;;;-144.65;93.23
5146;BME280;2591;48.144;15.152;2022-08-01T02:10:10;74610.63;;;-144.65;93.52
5146;BME280;2591;48.144;15.152;2022-08-01T02:12:41;74600.41;;;-144.65;93.08
5146;BME280;2591;48.144;15.152;2022-08-01T02:15:14;74600.41;;;-144.65;93.35
5146;BME280;2591;48.144;15.152;2022-08-01T02:17:46;74598.38;;;-144.65;94.06
5146;BME280;2591;48.144;15.152;2022-08-01T02:20:15;74602.47;;;-144.65;95.25
5146;BME280;2591;48.144;15.152;2022-08-01T02:22:47;74606.53;;;-144.65;94.42
5146;BME280;2591;48.144;15.152;2022-08-01T02:25:21;74604.50;;;-144.65;91.77
5146;BME280;2591;48.144;15.152;2022-08-01T02:27:56;74600.41;;;-144.65;89.65
5146;BME280;2591;48.144;15.152;2022-08-01T02:30:32;74592.28;;;-144.65;87.43
5146;BME280;2591;48.144;15.152;2022-08-01T02:33:04;74592.28;;;-144.65;87.52
5146;BME280;2591;48.144;15.152;2022-08-01T02:35:42;74592.28;;;-144.65;86.93
5146;BME280;2591;48.144;15.152;2022-08-01T02:38:34;74588.19;;;-144.65;86.64
5146;BME280;2591;48.144;15.152;2022-08-01T02:41:08;74590.22;;;-144.65;86.30
5146;BME280;2591;48.144;15.152;2022-08-01T02:43:38;74588.19;;;-144.65;85.23
5146;BME280;2591;48.144;15.152;2022-08-01T02:46:15;74594.31;;;-144.65;86.31
5146;BME280;2591;48.144;15.152;2022-08-01T02:48:44;74598.38;;;-144.65;85.96
5146;BME280;2591;48.144;15.152;2022-08-01T02:51:14;74594.31;;;-144.65;85.58
5146;BME280;2591;48.144;15.152;2022-08-01T02:53:44;74594.31;;;-144.65;86.72
5146;BME280;2591;48.144;15.152;2022-08-01T02:56:14;74596.34;;;-144.65;87.58
5146;BME280;2591;48.144;15.152;2022-08-01T02:58:44;74600.41;;;-144.65;88.39
5146;BME280;2591;48.144;15.152;2022-08-01T03:01:15;74610.63;;;-144.65;91.90
5146;BME280;2591;48.144;15.152;2022-08-01T03:03:45;74606.53;;;-144.65;93.38
5146;BME280;2591;48.144;15.152;2022-08-01T03:06:15;74614.69;;;-144.65;95.01
5146;BME280;2591;48.144;15.152;2022-08-01T03:08:44;74612.66;;;-144.65;95.72
5146;BME280;2591;48.144;15.152;2022-08-01T03:11:15;74618.75;;;-144.65;97.20
5146;BME280;2591;48.144;15.152;2022-08-01T03:13:47;74626.91;;;-144.65;98.37
5146;BME280;2591;48.144;15.152;2022-08-01T03:16:18;74622.84;;;-144.65;98.89
5146;BME280;2591;48.144;15.152;2022-08-01T03:18:49;74628.94;;;-144.65;99.63
5146;BME280;2591;48.144;15.152;2022-08-01T03:21:19;74628.94;;;-144.65;99.81
5146;BME280;2591;48.144;15.152;2022-08-01T03:23:49;74626.91;;;-144.65;99.86
5146;BME280;2591;48.144;15.152;2022-08-01T03:26:21;74622.84;;;-144.65;100.00
5146;BME280;2591;48.144;15.152;2022-08-01T03:28:51;74631.00;;;-144.65;100.00
5146;BME280;2591;48.144;15.152;2022-08-01T03:31:25;74635.06;;;-144.65;100.00
5146;BME280;2591;48.144;15.152;2022-08-01T03:33:53;74633.03;;;-144.65;100.00
5146;BME280;2591;48.144;15.152;2022-08-01T03:36:25;74637.09;;;-144.65;100.00
5146;BME280;2591;48.144;15.152;2022-08-01T03:38:57;74635.06;;;-144.65;100.00
5146;BME280;2591;48.144;15.152;2022-08-01T03:41:27;74637.09;;;-144.65;100.00
5146;BME280;2591;48.144;15.152;2022-08-01T03:44:03;74639.13;;;-144.65;100.00
5146;BME280;2591;48.144;15.152;2022-08-01T03:46:38;74653.41;;;-144.65;100.00
5146;BME280;2591;48.144;15.152;2022-08-01T03:49:17;74659.53;;;-144.65;100.00
5146;BME280;2591;48.144;15.152;2022-08-01T03:51:47;74659.53;;;-144.65;100.00
5146;BME280;2591;48.144;15.152;2022-08-01T03:54:20;74665.63;;;-144.65;100.00
5146;BME280;2591;48.144;15.152;2022-08-01T03:56:49;74665.63;;;-144.65;100.00
5146;BME280;2591;48.144;15.152;2022-08-01T03:59:18;74669.72;;;-144.65;100.00
5146;BME280;2591;48.144;15.152;2022-08-01T04:01:48;74667.69;;;-144.65;100.00
5146;BME280;2591;48.144;15.152;2022-08-01T04:04:16;74659.53;;;-144.65;100.00
5146;BME280;2591;48.144;15.152;2022-08-01T04:06:44;74667.69;;;-144.65;100.00
5146;BME280;2591;48.144;15.152;2022-08-01T04:09:12;74661.56;;;-144.65;100.00
5146;BME280;2591;48.144;15.152;2022-08-01T04:11:40;74669.72;;;-144.65;100.00
5146;BME280;2591;48.144;15.152;2022-08-01T04:14:08;74675.81;;;-144.65;100.00
5146;BME280;2591;48.144;15.152;2022-08-01T04:16:37;74683.97;;;-144.65;100.00
5146;BME280;2591;48.144;15.152;2022-08-01T04:19:06;74677.88;;;-144.65;100.00
5146;BME280;2591;48.144;15.152;2022-08-01T04:21:35;74681.94;;;-144.65;100.00
5146;BME280;2591;48.144;15.152;2022-08-01T04:24:07;74683.97;;;-144.65;100.00
5146;BME280;2591;48.144;15.152;2022-08-01T04:26:37;74673.78;;;-144.65;100.00
5146;BME280;2591;48.144;15.152;2022-08-01T04:29:08;74675.81;;;-144.65;100.00
5146;BME280;2591;48.144;15.152;2022-08-01T04:31:38;74679.91;;;-144.65;100.00
5146;BME280;2591;48.144;15.152;2022-08-01T04:34:13;74681.94;;;-144.65;100.00
5146;BME280;2591;48.144;15.152;2022-08-01T04:36:44;74679.91;;;-144.65;100.00
5146;BME280;2591;48.144;15.152;2022-08-01T04:39:13;74679.91;;;-144.65;100.00
5146;BME280;2591;48.144;15.152;2022-08-01T04:41:44;74683.97;;;-144.65;100.00
5146;BME280;2591;48.144;15.152;2022-08-01T04:44:13;74683.97;;;-144.65;100.00
5146;BME280;2591;48.144;15.152;2022-08-01T04:46:42;74688.06;;;-144.65;100.00
5146;BME280;2591;48.144;15.152;2022-08-01T04:49:12;74692.13;;;-144.65;100.00
5146;BME280;2591;48.144;15.152;2022-08-01T04:51:50;74688.06;;;-144.65;100.00
5146;BME280;2591;48.144;15.152;2022-08-01T04:54:18;74692.13;;;-144.65;100.00
5146;BME280;2591;48.144;15.152;2022-08-01T04:56:48;74692.13;;;-144.65;100.00
5146;BME280;2591;48.144;15.152;2022-08-01T04:59:17;74694.16;;;-144.65;100.00
5146;BME280;2591;48.144;15.152;2022-08-01T05:02:02;74692.13;;;-144.65;100.00
5146;BME280;2591;48.144;15.152;2022-08-01T05:04:32;74696.19;;;-144.65;100.00
5146;BME280;2591;48.144;15.152;2022-08-01T05:07:00;74694.16;;;-144.65;100.00
5146;BME280;2591;48.144;15.152;2022-08-01T05:09:28;74692.13;;;-144.65;100.00
5146;BME280;2591;48.144;15.152;2022-08-01T05:11:57;74688.06;;;-144.65;100.00
5146;BME280;2591;48.144;15.152;2022-08-01T05:14:26;74694.16;;;-144.65;100.00
5146;BME280;2591;48.144;15.152;2022-08-01T05:16:54;74696.19;;;-144.65;100.00
5146;BME280;2591;48.144;15.152;2022-08-01T05:19:22;74692.13;;;-144.65;100.00
5146;BME280;2591;48.144;15.152;2022-08-01T05:21:52;74692.13;;;-144.65;100.00
5146;BME280;2591;48.144;15.152;2022-08-01T05:24:26;74688.06;;;-144.65;100.00
5146;BME280;2591;48.144;15.152;2022-08-01T05:26:56;74686.00;;;-144.65;100.00
5146;BME280;2591;48.144;15.152;2022-08-01T05:29:26;74683.97;;;-144.65;100.00
5146;BME280;2591;48.144;15.152;2022-08-01T05:31:54;74675.81;;;-144.65;100.00
5146;BME280;2591;48.144;15.152;2022-08-01T05:34:23;74677.88;;;-144.65;100.00
5146;BME280;2591;48.144;15.152;2022-08-01T05:36:53;74675.81;;;-144.65;100.00
5146;BME280;2591;48.144;15.152;2022-08-01T05:39:23;74669.72;;;-144.65;100.00
5146;BME280;2591;48.144;15.152;2022-08-01T05:41:51;74663.59;;;-144.65;100.00
5146;BME280;2591;48.144;15.152;2022-08-01T05:44:19;74651.38;;;-144.65;100.00
5146;BME280;2591;48.144;15.152;2022-08-01T05:46:47;74641.19;;;-144.65;100.00
5146;BME280;2591;48.144;15.152;2022-08-01T05:49:15;74639.13;;;-144.65;100.00
5146;BME280;2591;48.144;15.152;2022-08-01T05:51:43;74635.06;;;-144.65;100.00
5146;BME280;2591;48.144;15.152;2022-08-01T05:54:12;74626.91;;;-144.65;100.00
5146;BME280;2591;48.144;15.152;2022-08-01T05:56:40;74622.84;;;-144.65;100.00
5146;BME280;2591;48.144;15.152;2022-08-01T05:59:08;74626.91;;;-144.65;100.00
5146;BME280;2591;48.144;15.152;2022-08-01T06:01:36;74620.81;;;-144.65;100.00
5146;BME280;2591;48.144;15.152;2022-08-01T06:04:04;74616.72;;;-144.65;100.00
5146;BME280;2591;48.144;15.152;2022-08-01T06:06:33;74606.53;;;-144.65;100.00
5146;BME280;2591;48.144;15.152;2022-08-01T06:09:01;74598.38;;;-144.65;100.00
5146;BME280;2591;48.144;15.152;2022-08-01T06:11:30;74594.31;;;-144.65;100.00
5146;BME280;2591;48.144;15.152;2022-08-01T06:13:58;74580.03;;;-144.65;100.00
5146;BME280;2591;48.144;15.152;2022-08-01T06:16:26;74573.94;;;-144.65;100.00
5146;BME280;2591;48.144;15.152;2022-08-01T06:18:54;74573.94;;;-144.65;100.00
5146;BME280;2591;48.144;15.152;2022-08-01T06:21:22;74559.66;;;-144.65;100.00
5146;BME280;2591;48.144;15.152;2022-08-01T06:23:50;74553.56;;;-144.65;100.00
5146;BME280;2591;48.144;15.152;2022-08-01T06:26:18;74545.41;;;-144.65;97.37
5146;BME280;2591;48.144;15.152;2022-08-01T06:28:47;74539.28;;;-144.65;94.79
5146;BME280;2591;48.144;15.152;2022-08-01T06:31:16;74535.22;;;-144.65;92.93
5146;BME280;2591;48.144;15.152;2022-08-01T06:33:44;74529.09;;;-144.65;89.00
5146;BME280;2591;48.144;15.152;2022-08-01T06:36:12;74514.84;;;-144.65;86.39
5146;BME280;2591;48.144;15.152;2022-08-01T06:38:40;74516.88;;;-144.65;86.88
5146;BME280;2591;48.144;15.152;2022-08-01T06:41:08;74508.72;;;-144.65;88.01
5146;BME280;2591;48.144;15.152;2022-08-01T06:43:36;74500.56;;;-144.65;87.41
5146;BME280;2591;48.144;15.152;2022-08-01T06:46:05;74488.34;;;-144.65;87.43
5146;BME280;2591;48.144;15.152;2022-08-01T06:48:33;74486.31;;;-144.65;87.14
5146;BME280;2591;48.144;15.152;2022-08-01T06:51:05;74480.19;;;-144.65;86.89
5146;BME280;2591;48.144;15.152;2022-08-01T06:53:40;74459.81;;;-144.65;84.83
5146;BME280;2591;48.144;15.152;2022-08-01T06:56:09;74451.66;;;-144.65;83.98
5146;BME280;2591;48.144;15.152;2022-08-01T06:58:37;74451.66;;;-144.65;85.45
5146;BME280;2591;48.144;15.152;2022-08-01T07:01:07;74447.59;;;-144.65;83.36
5146;BME280;2591;48.144;15.152;2022-08-01T07:03:35;74441.47;;;-144.65;83.96
5146;BME280;2591;48.144;15.152;2022-08-01T07:06:19;74431.28;;;-144.65;82.26
5146;BME280;2591;48.144;15.152;2022-08-01T07:08:47;74431.28;;;-144.65;81.75
5146;BME280;2591;48.144;15.152;2022-08-01T07:11:15;74414.97;;;-144.65;81.98
5146;BME280;2591;48.144;15.152;2022-08-01T07:13:43;74408.88;;;-144.65;80.11
5146;BME280;2591;48.144;15.152;2022-08-01T07:16:14;74398.69;;;-144.65;81.51
5146;BME280;2591;48.144;15.152;2022-08-01T07:18:41;74386.44;;;-144.65;80.99
5146;BME280;2591;48.144;15.152;2022-08-01T07:21:10;74378.28;;;-144.65;80.20
5146;BME280;2591;48.144;15.152;2022-08-01T07:23:58;74372.19;;;-144.65;77.84
5146;BME280;2591;48.144;15.152;2022-08-01T07:26:26;74370.16;;;-144.65;76.08
5146;BME280;2591;48.144;15.152;2022-08-01T07:28:54;74374.22;;;-144.65;74.93
5146;BME280;2591;48.144;15.152;2022-08-01T07:31:23;74368.09;;;-144.65;73.76
5146;BME280;2591;48.144;15.152;2022-08-01T07:33:57;74366.06;;;-144.65;72.93
5146;BME280;2591;48.144;15.152;2022-08-01T07:36:25;74364.03;;;-144.65;72.95
5146;BME280;2591;48.144;15.152;2022-08-01T07:38:53;74370.16;;;-144.65;73.14
5146;BME280;2591;48.144;15.152;2022-08-01T07:41:21;74362.00;;;-144.65;71.66
5146;BME280;2591;48.144;15.152;2022-08-01T07:44:09;74362.00;;;-144.65;70.89
5146;BME280;2591;48.144;15.152;2022-08-01T07:46:38;74366.06;;;-144.65;71.08
5146;BME280;2591;48.144;15.152;2022-08-01T07:49:07;74370.16;;;-144.65;71.24
5146;BME280;2591;48.144;15.152;2022-08-01T07:51:35;74382.38;;;-144.65;71.88
5146;BME280;2591;48.144;15.152;2022-08-01T07:54:04;74384.41;;;-144.65;71.67
5146;BME280;2591;48.144;15.152;2022-08-01T07:56:33;74386.44;;;-144.65;72.42
5146;BME280;2591;48.144;15.152;2022-08-01T07:59:01;74394.59;;;-144.65;73.56
5146;BME280;2591;48.144;15.152;2022-08-01T08:01:29;74388.50;;;-144.65;73.69
5146;BME280;2591;48.144;15.152;2022-08-01T08:03:58;74374.22;;;-144.65;72.19
5146;BME280;2591;48.144;15.152;2022-08-01T08:06:26;74366.06;;;-144.65;71.79
5146;BME280;2591;48.144;15.152;2022-08-01T08:08:54;74353.84;;;-144.65;71.50
5146;BME280;2591;48.144;15.152;2022-08-01T08:11:22;74341.63;;;-144.65;71.05
5146;BME280;2591;48.144;15.152;2022-08-01T08:13:55;74317.16;;;-144.65;69.48
5146;BME280;2591;48.144;15.152;2022-08-01T08:16:23;74300.88;;;-144.65;69.43
5146;BME280;2591;48.144;15.152;2022-08-01T08:18:51;74280.50;;;-144.65;68.30
5146;BME280;2591;48.144;15.152;2022-08-01T08:21:20;74274.38;;;-144.65;67.30
5146;BME280;2591;48.144;15.152;2022-08-01T08:23:48;74280.50;;;-144.65;68.09
5146;BME280;2591;48.144;15.152;2022-08-01T08:26:34;74260.09;;;-144.65;67.84
5146;BME280;2591;48.144;15.152;2022-08-01T08:29:06;74251.97;;;-144.65;66.89
5146;BME280;2591;48.144;15.152;2022-08-01T08:31:34;74264.19;;;-144.65;67.10
5146;BME280;2591;48.144;15.152;2022-08-01T08:34:18;74264.19;;;-144.65;66.97
5146;BME280;2591;48.144;15.152;2022-08-01T08:36:49;74266.22;;;-144.65;67.84
5146;BME280;2591;48.144;15.152;2022-08-01T08:39:17;74260.09;;;-144.65;67.41
5146;BME280;2591;48.144;15.152;2022-08-01T08:41:47;74264.19;;;-144.65;68.30
5146;BME280;2591;48.144;15.152;2022-08-01T08:44:16;74251.97;;;-144.65;68.28
5146;BME280;2591;48.144;15.152;2022-08-01T08:46:47;74251.97;;;-144.65;67.01
5146;BME280;2591;48.144;15.152;2022-08-01T08:49:17;74251.97;;;-144.65;66.42
5146;BME280;2591;48.144;15.152;2022-08-01T08:51:50;74243.81;;;-144.65;65.87
5146;BME280;2591;48.144;15.152;2022-08-01T08:54:21;74235.66;;;-144.65;64.49
5146;BME280;2591;48.144;15.152;2022-08-01T08:56:58;74229.53;;;-144.65;64.38
5146;BME280;2591;48.144;15.152;2022-08-01T08:59:26;74211.22;;;-144.65;64.15
5146;BME280;2591;48.144;15.152;2022-08-01T09:01:55;74213.25;;;-144.65;64.40
5146;BME280;2591;48.144;15.152;2022-08-01T09:04:24;74203.06;;;-144.65;63.73
5146;BME280;2591;48.144;15.152;2022-08-01T09:06:54;74203.06;;;-144.65;64.42
5146;BME280;2591;48.144;15.152;2022-08-01T09:09:23;74182.69;;;-144.65;62.22
5146;BME280;2591;48.144;15.152;2022-08-01T09:11:51;74194.91;;;-144.65;62.44
5146;BME280;2591;48.144;15.152;2022-08-01T09:14:25;74190.81;;;-144.65;63.15
5146;BME280;2591;48.144;15.152;2022-08-01T09:17:00;74176.56;;;-144.65;63.15
5146;BME280;2591;48.144;15.152;2022-08-01T09:19:35;74162.31;;;-144.65;62.09
5146;BME280;2591;48.144;15.152;2022-08-01T09:22:10;74162.31;;;-144.65;61.77
5146;BME280;2591;48.144;15.152;2022-08-01T09:24:39;74162.31;;;-144.65;61.94
5146;BME280;2591;48.144;15.152;2022-08-01T09:27:18;74150.06;;;-144.65;60.92
5146;BME280;2591;48.144;15.152;2022-08-01T09:29:48;74127.66;;;-144.65;61.36
5146;BME280;2591;48.144;15.152;2022-08-01T09:32:28;74080.78;;;-144.65;60.24
5146;BME280;2591;48.144;15.152;2022-08-01T09:35:23;74060.41;;;-144.65;58.90
5146;BME280;2591;48.144;15.152;2022-08-01T09:38:18;74048.19;;;-144.65;58.35
5146;BME280;2591;48.144;15.152;2022-08-01T09:40:49;74050.22;;;-144.65;58.37
5146;BME280;2591;48.144;15.152;2022-08-01T09:43:18;74027.81;;;-144.65;57.95
5146;BME280;2591;48.144;15.152;2022-08-01T09:45:46;74038.00;;;-144.65;57.75
5146;BME280;2591;48.144;15.152;2022-08-01T09:48:19;74021.72;;;-144.65;58.23
5146;BME280;2591;48.144;15.152;2022-08-01T09:50:55;74001.34;;;-144.65;57.98
5146;BME280;2591;48.144;15.152;2022-08-01T09:53:46;73964.66;;;-144.65;58.19
5146;BME280;2591;48.144;15.152;2022-08-01T09:56:20;73942.25;;;-144.65;57.85
5146;BME280;2591;48.144;15.152;2022-08-01T09:58:53;73901.50;;;-144.65;57.46
5146;BME280;2591;48.144;15.152;2022-08-01T10:01:27;73901.50;;;-144.65;56.28
5146;BME280;2591;48.144;15.152;2022-08-01T10:04:06;73881.13;;;-144.65;56.29
5146;BME280;2591;48.144;15.152;2022-08-01T10:06:36;73864.81;;;-144.65;56.03
5146;BME280;2591;48.144;15.152;2022-08-01T10:09:06;73840.38;;;-144.65;55.59
5146;BME280;2591;48.144;15.152;2022-08-01T10:11:34;73815.91;;;-144.65;54.11
5146;BME280;2591;48.144;15.152;2022-08-01T10:14:07;73803.69;;;-144.65;54.29
5146;BME280;2591;48.144;15.152;2022-08-01T10:16:36;73769.06;;;-144.65;54.11
5146;BME280;2591;48.144;15.152;2022-08-01T10:19:06;73758.88;;;-144.65;52.60
5146;BME280;2591;48.144;15.152;2022-08-01T10:21:41;73775.16;;;-144.65;53.00
5146;BME280;2591;48.144;15.152;2022-08-01T10:24:27;73769.06;;;-144.65;53.44
5146;BME280;2591;48.144;15.152;2022-08-01T10:26:58;73746.66;;;-144.65;52.98
5146;BME280;2591;48.144;15.152;2022-08-01T10:29:37;73718.13;;;-144.65;53.80
5146;BME280;2591;48.144;15.152;2022-08-01T10:32:13;73689.59;;;-144.65;52.47
5146;BME280;2591;48.144;15.152;2022-08-01T10:34:41;73669.22;;;-144.65;52.32
5146;BME280;2591;48.144;15.152;2022-08-01T10:37:12;73630.53;;;-144.65;51.78
5146;BME280;2591;48.144;15.152;2022-08-01T10:39:43;73638.66;;;-144.65;51.49
5146;BME280;2591;48.144;15.152;2022-08-01T10:42:12;73648.84;;;-144.65;50.93
5146;BME280;2591;48.144;15.152;2022-08-01T10:44:42;73634.59;;;-144.65;50.89
5146;BME280;2591;48.144;15.152;2022-08-01T10:47:17;73624.41;;;-144.65;51.78
5146;BME280;2591;48.144;15.152;2022-08-01T10:49:57;73665.16;;;-144.65;52.32
5146;BME280;2591;48.144;15.152;2022-08-01T10:52:30;73671.25;;;-144.65;51.69
5146;BME280;2591;48.144;15.152;2022-08-01T10:55:08;73677.38;;;-144.65;51.86
5146;BME280;2591;48.144;15.152;2022-08-01T10:57:43;73714.03;;;-144.65;52.10
5146;BME280;2591;48.144;15.152;2022-08-01T11:00:20;73693.69;;;-144.65;51.42
5146;BME280;2591;48.144;15.152;2022-08-01T11:02:58;73712.00;;;-144.65;50.35
5146;BME280;2591;48.144;15.152;2022-08-01T11:05:31;73722.19;;;-144.65;49.79
5146;BME280;2591;48.144;15.152;2022-08-01T11:08:02;73764.97;;;-144.65;51.19
5146;BME280;2591;48.144;15.152;2022-08-01T11:10:36;73754.78;;;-144.65;50.44
5146;BME280;2591;48.144;15.152;2022-08-01T11:13:05;73762.94;;;-144.65;50.89
5146;BME280;2591;48.144;15.152;2022-08-01T11:15:35;73705.91;;;-144.65;50.44
5146;BME280;2591;48.144;15.152;2022-08-01T11:18:31;73644.78;;;-144.65;50.39
5146;BME280;2591;48.144;15.152;2022-08-01T11:21:03;73616.25;;;-144.65;49.62
5146;BME280;2591;48.144;15.152;2022-08-01T11:23:52;73608.09;;;-144.65;51.06
5146;BME280;2591;48.144;15.152;2022-08-01T11:26:21;73563.28;;;-144.65;48.16
5146;BME280;2591;48.144;15.152;2022-08-01T11:29:17;73714.03;;;-144.65;47.18
5146;BME280;2591;48.144;15.152;2022-08-01T11:31:49;73909.66;;;-144.65;47.49
5146;BME280;2591;48.144;15.152;2022-08-01T11:34:18;74054.31;;;-144.65;49.13
5146;BME280;2591;48.144;15.152;2022-08-01T11:36:47;74125.63;;;-144.65;50.57
5146;BME280;2591;48.144;15.152;2022-08-01T11:39:25;74158.22;;;-144.65;51.73
5146;BME280;2591;48.144;15.152;2022-08-01T11:42:17;74150.06;;;-144.65;51.91
5146;BME280;2591;48.144;15.152;2022-08-01T11:44:50;74164.34;;;-144.65;52.85
5146;BME280;2591;48.144;15.152;2022-08-01T11:47:18;74121.56;;;-144.65;52.00
5146;BME280;2591;48.144;15.152;2022-08-01T11:50:06;74141.94;;;-144.65;53.99
5146;BME280;2591;48.144;15.152;2022-08-01T11:52:57;74178.59;;;-144.65;56.24
5146;BME280;2591;48.144;15.152;2022-08-01T11:55:26;74182.69;;;-144.65;55.38
5146;BME280;2591;48.144;15.152;2022-08-01T11:58:04;74198.97;;;-144.65;56.60
5146;BME280;2591;48.144;15.152;2022-08-01T12:00:34;74223.44;;;-144.65;57.33
5146;BME280;2591;48.144;15.152;2022-08-01T12:03:09;74249.91;;;-144.65;60.61
5146;BME280;2591;48.144;15.152;2022-08-01T12:05:50;74268.25;;;-144.65;61.85
5146;BME280;2591;48.144;15.152;2022-08-01T12:08:24;74272.34;;;-144.65;65.27
5146;BME280;2591;48.144;15.152;2022-08-01T12:10:53;74292.72;;;-144.65;65.37
5146;BME280;2591;48.144;15.152;2022-08-01T12:13:39;74329.38;;;-144.65;67.89
5146;BME280;2591;48.144;15.152;2022-08-01T12:16:08;74364.03;;;-144.65;70.82
5146;BME280;2591;48.144;15.152;2022-08-01T12:18:38;74382.38;;;-144.65;73.40
5146;BME280;2591;48.144;15.152;2022-08-01T12:21:06;74419.06;;;-144.65;74.14
5146;BME280;2591;48.144;15.152;2022-08-01T12:23:41;74429.25;;;-144.65;72.43
5146;BME280;2591;48.144;15.152;2022-08-01T12:26:12;74427.22;;;-144.65;70.86
5146;BME280;2591;48.144;15.152;2022-08-01T12:28:59;74447.59;;;-144.65;72.27
5146;BME280;2591;48.144;15.152;2022-08-01T12:31:33;74496.50;;;-144.65;79.34
5146;BME280;2591;48.144;15.152;2022-08-01T12:34:26;74582.09;;;-144.65;78.75
5146;BME280;2591;48.144;15.152;2022-08-01T12:36:56;74681.94;;;-144.65;86.15
5146;BME280;2591;48.144;15.152;2022-08-01T12:39:30;74722.69;;;-144.65;96.93
5146;BME280;2591;48.144;15.152;2022-08-01T12:42:00;74749.19;;;-144.65;97.17
5146;BME280;2591;48.144;15.152;2022-08-01T12:44:30;74759.38;;;-144.65;100.00
5146;BME280;2591;48.144;15.152;2022-08-01T12:46:59;74783.84;;;-144.65;100.00
5146;BME280;2591;48.144;15.152;2022-08-01T12:49:28;74773.66;;;-144.65;100.00
5146;BME280;2591;48.144;15.152;2022-08-01T12:51:56;74769.56;;;-144.65;100.00
5146;BME280;2591;48.144;15.152;2022-08-01T12:54:24;74773.66;;;-144.65;100.00
5146;BME280;2591;48.144;15.152;2022-08-01T12:56:53;74755.31;;;-144.65;100.00
5146;BME280;2591;48.144;15.152;2022-08-01T12:59:30;74749.19;;;-144.65;100.00
5146;BME280;2591;48.144;15.152;2022-08-01T13:02:08;74734.94;;;-144.65;100.00
5146;BME280;2591;48.144;15.152;2022-08-01T13:04:49;74708.44;;;-144.65;100.00
5146;BME280;2591;48.144;15.152;2022-08-01T13:07:17;74700.28;;;-144.65;100.00
5146;BME280;2591;48.144;15.152;2022-08-01T13:09:49;74694.16;;;-144.65;100.00
5146;BME280;2591;48.144;15.152;2022-08-01T13:12:17;74690.09;;;-144.65;100.00